sensor_id;sensor_type;location;lat;lon;timestamp;P1;durP1;ratioP1;P2;durP2;ratioP2
19004;SDS011;9635;52.078;8.648;2023-08-31T00:03:26;31.38;;;20.70;;
19004;SDS011;9635;52.078;8.648;2023-08-31T00:08:30;34.20;;;20.48;;
19004;SDS011;9635;52.078;8.648;2023-08-31T00:13:34;32.40;;;20.58;;
19004;SDS011;9635;52.078;8.648;2023-08-31T00:18:38;35.67;;;19.70;;
19004;SDS011;9635;52.078;8.648;2023-08-31T00:23:41;29.35;;;18.40;;
19004;SDS011;9635;52.078;8.648;2023-08-31T00:28:44;27.45;;;17.25;;
19004;SDS011;9635;52.078;8.648;2023-08-31T00:33:48;31.00;;;18.30;;
19004;SDS011;9635;52.078;8.648;2023-08-31T00:38:52;28.55;;;17.25;;
19004;SDS011;9635;52.078;8.648;2023-08-31T00:43:55;29.02;;;17.17;;
19004;SDS011;9635;52.078;8.648;2023-08-31T00:48:59;27.17;;;16.60;;
19004;SDS011;9635;52.078;8.648;2023-08-31T00:54:03;28.63;;;17.00;;
19004;SDS011;9635;52.078;8.648;2023-08-31T00:59:07;25.95;;;15.35;;
19004;SDS011;9635;52.078;8.648;2023-08-31T01:04:15;28.95;;;15.50;;
19004;SDS011;9635;52.078;8.648;2023-08-31T01:09:27;31.67;;;15.43;;
19004;SDS011;9635;52.078;8.648;2023-08-31T01:14:42;27.02;;;14.18;;
19004;SDS011;9635;52.078;8.648;2023-08-31T01:19:50;21.67;;;13.75;;
19004;SDS011;9635;52.078;8.648;2023-08-31T01:24:56;22.67;;;13.35;;
19004;SDS011;9635;52.078;8.648;2023-08-31T01:30:03;19.15;;;13.18;;
19004;SDS011;9635;52.078;8.648;2023-08-31T01:35:07;23.00;;;13.23;;
19004;SDS011;9635;52.078;8.648;2023-08-31T01:40:12;24.77;;;13.25;;
19004;SDS011;9635;52.078;8.648;2023-08-31T01:45:20;23.23;;;13.43;;
19004;SDS011;9635;52.078;8.648;2023-08-31T01:50:25;20.27;;;13.20;;
19004;SDS011;9635;52.078;8.648;2023-08-31T01:55:29;21.85;;;11.25;;
19004;SDS011;9635;52.078;8.648;2023-08-31T02:00:33;17.60;;;11.35;;
19004;SDS011;9635;52.078;8.648;2023-08-31T02:05:39;18.83;;;10.65;;
19004;SDS011;9635;52.078;8.648;2023-08-31T02:10:44;22.98;;;12.45;;
19004;SDS011;9635;52.078;8.648;2023-08-31T02:15:54;24.60;;;12.05;;
19004;SDS011;9635;52.078;8.648;2023-08-31T02:20:57;27.70;;;11.25;;
19004;SDS011;9635;52.078;8.648;2023-08-31T02:26:02;22.52;;;12.20;;
19004;SDS011;9635;52.078;8.648;2023-08-31T02:31:04;25.42;;;13.68;;
19004;SDS011;9635;52.078;8.648;2023-08-31T02:36:08;29.70;;;14.52;;
19004;SDS011;9635;52.078;8.648;2023-08-31T02:41:12;28.15;;;16.45;;
19004;SDS011;9635;52.078;8.648;2023-08-31T02:46:15;28.90;;;16.50;;
19004;SDS011;9635;52.078;8.648;2023-08-31T02:51:18;29.30;;;16.70;;
19004;SDS011;9635;52.078;8.648;2023-08-31T02:56:22;39.72;;;18.92;;
19004;SDS011;9635;52.078;8.648;2023-08-31T03:01:25;33.03;;;19.00;;
19004;SDS011;9635;52.078;8.648;2023-08-31T03:06:28;36.05;;;17.65;;
19004;SDS011;9635;52.078;8.648;2023-08-31T03:11:35;32.10;;;17.90;;
19004;SDS011;9635;52.078;8.648;2023-08-31T03:16:38;32.10;;;19.33;;
19004;SDS011;9635;52.078;8.648;2023-08-31T03:21:41;36.28;;;20.85;;
19004;SDS011;9635;52.078;8.648;2023-08-31T03:26:45;33.45;;;19.38;;
19004;SDS011;9635;52.078;8.648;2023-08-31T03:31:48;33.58;;;19.92;;
19004;SDS011;9635;52.078;8.648;2023-08-31T03:36:51;34.00;;;19.90;;
19004;SDS011;9635;52.078;8.648;2023-08-31T03:41:55;36.05;;;20.30;;
19004;SDS011;9635;52.078;8.648;2023-08-31T03:46:58;39.97;;;23.15;;
19004;SDS011;9635;52.078;8.648;2023-08-31T03:52:01;38.58;;;22.10;;
19004;SDS011;9635;52.078;8.648;2023-08-31T03:57:06;38.63;;;22.55;;
19004;SDS011;9635;52.078;8.648;2023-08-31T04:02:09;37.95;;;22.20;;
19004;SDS011;9635;52.078;8.648;2023-08-31T04:07:12;46.13;;;26.08;;
19004;SDS011;9635;52.078;8.648;2023-08-31T04:12:16;31.73;;;21.10;;
19004;SDS011;9635;52.078;8.648;2023-08-31T04:17:19;46.28;;;26.25;;
19004;SDS011;9635;52.078;8.648;2023-08-31T04:22:22;42.88;;;25.52;;
19004;SDS011;9635;52.078;8.648;2023-08-31T04:27:26;36.85;;;24.75;;
19004;SDS011;9635;52.078;8.648;2023-08-31T04:32:31;46.10;;;24.80;;
19004;SDS011;9635;52.078;8.648;2023-08-31T04:37:34;42.20;;;24.95;;
19004;SDS011;9635;52.078;8.648;2023-08-31T04:42:38;48.92;;;31.73;;
19004;SDS011;9635;52.078;8.648;2023-08-31T04:47:41;49.33;;;35.28;;
19004;SDS011;9635;52.078;8.648;2023-08-31T04:52:45;52.63;;;35.15;;
19004;SDS011;9635;52.078;8.648;2023-08-31T04:57:49;50.17;;;30.58;;
19004;SDS011;9635;52.078;8.648;2023-08-31T05:02:52;49.05;;;29.00;;
19004;SDS011;9635;52.078;8.648;2023-08-31T05:07:55;53.45;;;30.48;;
19004;SDS011;9635;52.078;8.648;2023-08-31T05:12:59;39.10;;;21.92;;
19004;SDS011;9635;52.078;8.648;2023-08-31T05:18:02;48.22;;;29.55;;
19004;SDS011;9635;52.078;8.648;2023-08-31T05:23:06;54.40;;;33.17;;
19004;SDS011;9635;52.078;8.648;2023-08-31T05:28:10;49.67;;;33.17;;
19004;SDS011;9635;52.078;8.648;2023-08-31T05:33:13;51.22;;;32.13;;
19004;SDS011;9635;52.078;8.648;2023-08-31T05:38:16;53.05;;;35.65;;
19004;SDS011;9635;52.078;8.648;2023-08-31T05:43:21;50.08;;;33.90;;
19004;SDS011;9635;52.078;8.648;2023-08-31T05:48:24;45.10;;;30.50;;
19004;SDS011;9635;52.078;8.648;2023-08-31T05:53:26;46.33;;;31.38;;
19004;SDS011;9635;52.078;8.648;2023-08-31T05:58:31;42.78;;;26.90;;
19004;SDS011;9635;52.078;8.648;2023-08-31T06:03:35;47.15;;;30.50;;
19004;SDS011;9635;52.078;8.648;2023-08-31T06:08:38;46.38;;;31.08;;
19004;SDS011;9635;52.078;8.648;2023-08-31T06:13:42;45.78;;;27.23;;
19004;SDS011;9635;52.078;8.648;2023-08-31T06:18:45;44.38;;;27.60;;
19004;SDS011;9635;52.078;8.648;2023-08-31T06:23:48;49.22;;;32.08;;
19004;SDS011;9635;52.078;8.648;2023-08-31T06:28:52;42.17;;;27.40;;
19004;SDS011;9635;52.078;8.648;2023-08-31T06:33:55;45.00;;;28.95;;
19004;SDS011;9635;52.078;8.648;2023-08-31T06:38:58;40.28;;;28.23;;
19004;SDS011;9635;52.078;8.648;2023-08-31T06:44:02;35.63;;;21.05;;
19004;SDS011;9635;52.078;8.648;2023-08-31T06:49:06;42.08;;;27.20;;
19004;SDS011;9635;52.078;8.648;2023-08-31T06:54:09;40.17;;;27.52;;
19004;SDS011;9635;52.078;8.648;2023-08-31T06:59:13;42.55;;;29.00;;
19004;SDS011;9635;52.078;8.648;2023-08-31T07:04:16;41.08;;;26.73;;
19004;SDS011;9635;52.078;8.648;2023-08-31T07:09:19;37.65;;;23.05;;
19004;SDS011;9635;52.078;8.648;2023-08-31T07:14:24;38.35;;;25.95;;
19004;SDS011;9635;52.078;8.648;2023-08-31T07:19:27;33.45;;;23.42;;
19004;SDS011;9635;52.078;8.648;2023-08-31T07:24:30;28.27;;;19.10;;
19004;SDS011;9635;52.078;8.648;2023-08-31T07:29:34;30.77;;;21.48;;
19004;SDS011;9635;52.078;8.648;2023-08-31T07:34:37;30.38;;;22.63;;
19004;SDS011;9635;52.078;8.648;2023-08-31T07:39:40;29.35;;;20.58;;
19004;SDS011;9635;52.078;8.648;2023-08-31T07:44:44;29.10;;;20.67;;
19004;SDS011;9635;52.078;8.648;2023-08-31T07:49:47;31.27;;;19.95;;
19004;SDS011;9635;52.078;8.648;2023-08-31T07:54:50;26.77;;;20.95;;
19004;SDS011;9635;52.078;8.648;2023-08-31T07:59:54;32.90;;;22.73;;
19004;SDS011;9635;52.078;8.648;2023-08-31T08:04:57;30.70;;;20.38;;
19004;SDS011;9635;52.078;8.648;2023-08-31T08:10:00;26.27;;;21.15;;
19004;SDS011;9635;52.078;8.648;2023-08-31T08:15:06;24.85;;;18.60;;
19004;SDS011;9635;52.078;8.648;2023-08-31T08:20:09;27.65;;;21.60;;
19004;SDS011;9635;52.078;8.648;2023-08-31T08:25:14;26.98;;;19.33;;
19004;SDS011;9635;52.078;8.648;2023-08-31T08:30:18;23.83;;;18.58;;
19004;SDS011;9635;52.078;8.648;2023-08-31T08:35:21;21.83;;;15.90;;
19004;SDS011;9635;52.078;8.648;2023-08-31T08:40:24;30.30;;;22.05;;
19004;SDS011;9635;52.078;8.648;2023-08-31T08:45:30;29.40;;;22.15;;
19004;SDS011;9635;52.078;8.648;2023-08-31T08:50:38;33.85;;;22.02;;
19004;SDS011;9635;52.078;8.648;2023-08-31T08:55:42;26.50;;;22.10;;
19004;SDS011;9635;52.078;8.648;2023-08-31T09:00:47;27.80;;;19.02;;
19004;SDS011;9635;52.078;8.648;2023-08-31T09:05:51;21.58;;;14.85;;
19004;SDS011;9635;52.078;8.648;2023-08-31T09:10:55;22.63;;;14.20;;
19004;SDS011;9635;52.078;8.648;2023-08-31T09:16:00;25.00;;;16.63;;
19004;SDS011;9635;52.078;8.648;2023-08-31T09:21:03;17.35;;;15.05;;
19004;SDS011;9635;52.078;8.648;2023-08-31T09:26:06;18.70;;;13.70;;
19004;SDS011;9635;52.078;8.648;2023-08-31T09:31:10;19.50;;;13.68;;
19004;SDS011;9635;52.078;8.648;2023-08-31T09:36:13;19.55;;;15.10;;
19004;SDS011;9635;52.078;8.648;2023-08-31T09:41:17;14.02;;;10.43;;
19004;SDS011;9635;52.078;8.648;2023-08-31T09:46:21;14.73;;;12.15;;
19004;SDS011;9635;52.078;8.648;2023-08-31T09:51:25;13.45;;;9.77;;
19004;SDS011;9635;52.078;8.648;2023-08-31T09:56:32;14.65;;;11.07;;
19004;SDS011;9635;52.078;8.648;2023-08-31T10:01:37;11.05;;;9.82;;
19004;SDS011;9635;52.078;8.648;2023-08-31T10:06:41;9.77;;;7.97;;
19004;SDS011;9635;52.078;8.648;2023-08-31T10:11:45;8.85;;;7.68;;
19004;SDS011;9635;52.078;8.648;2023-08-31T10:16:50;11.18;;;8.38;;
19004;SDS011;9635;52.078;8.648;2023-08-31T10:21:54;11.65;;;9.13;;
19004;SDS011;9635;52.078;8.648;2023-08-31T10:27:16;11.50;;;8.70;;
19004;SDS011;9635;52.078;8.648;2023-08-31T10:32:21;14.55;;;8.23;;
19004;SDS011;9635;52.078;8.648;2023-08-31T10:37:24;9.77;;;7.60;;
19004;SDS011;9635;52.078;8.648;2023-08-31T10:42:30;16.27;;;8.43;;
19004;SDS011;9635;52.078;8.648;2023-08-31T10:47:41;11.85;;;7.97;;
19004;SDS011;9635;52.078;8.648;2023-08-31T10:52:46;12.70;;;8.82;;
19004;SDS011;9635;52.078;8.648;2023-08-31T10:57:49;11.15;;;8.27;;
19004;SDS011;9635;52.078;8.648;2023-08-31T11:02:54;9.82;;;7.93;;
19004;SDS011;9635;52.078;8.648;2023-08-31T11:07:58;6.25;;;5.65;;
19004;SDS011;9635;52.078;8.648;2023-08-31T11:13:04;7.97;;;3.80;;
19004;SDS011;9635;52.078;8.648;2023-08-31T11:18:08;5.53;;;2.92;;
19004;SDS011;9635;52.078;8.648;2023-08-31T11:23:11;4.75;;;2.95;;
19004;SDS011;9635;52.078;8.648;2023-08-31T11:28:15;5.80;;;2.38;;
19004;SDS011;9635;52.078;8.648;2023-08-31T11:33:19;4.68;;;1.65;;
19004;SDS011;9635;52.078;8.648;2023-08-31T11:38:23;2.22;;;1.85;;
19004;SDS011;9635;52.078;8.648;2023-08-31T11:43:26;5.85;;;1.80;;
19004;SDS011;9635;52.078;8.648;2023-08-31T11:48:31;3.15;;;1.40;;
19004;SDS011;9635;52.078;8.648;2023-08-31T11:53:34;4.28;;;1.77;;
19004;SDS011;9635;52.078;8.648;2023-08-31T11:58:40;6.60;;;1.30;;
19004;SDS011;9635;52.078;8.648;2023-08-31T12:04:09;2.03;;;1.00;;
19004;SDS011;9635;52.078;8.648;2023-08-31T12:09:12;1.95;;;0.85;;
19004;SDS011;9635;52.078;8.648;2023-08-31T12:14:19;4.93;;;1.50;;
19004;SDS011;9635;52.078;8.648;2023-08-31T12:19:28;1.50;;;0.93;;
19004;SDS011;9635;52.078;8.648;2023-08-31T12:24:36;5.13;;;0.80;;
19004;SDS011;9635;52.078;8.648;2023-08-31T12:29:40;2.88;;;1.23;;
19004;SDS011;9635;52.078;8.648;2023-08-31T12:34:44;4.47;;;1.60;;
19004;SDS011;9635;52.078;8.648;2023-08-31T12:39:47;1.92;;;1.00;;
19004;SDS011;9635;52.078;8.648;2023-08-31T12:44:53;3.38;;;1.63;;
19004;SDS011;9635;52.078;8.648;2023-08-31T12:49:57;1.95;;;0.60;;
19004;SDS011;9635;52.078;8.648;2023-08-31T12:55:00;2.88;;;0.70;;
19004;SDS011;9635;52.078;8.648;2023-08-31T13:00:03;2.10;;;0.80;;
19004;SDS011;9635;52.078;8.648;2023-08-31T13:05:11;1.90;;;0.68;;
19004;SDS011;9635;52.078;8.648;2023-08-31T13:10:14;6.05;;;1.10;;
19004;SDS011;9635;52.078;8.648;2023-08-31T13:15:18;2.75;;;1.30;;
19004;SDS011;9635;52.078;8.648;2023-08-31T13:20:22;4.68;;;1.60;;
19004;SDS011;9635;52.078;8.648;2023-08-31T13:25:25;2.72;;;1.52;;
19004;SDS011;9635;52.078;8.648;2023-08-31T13:30:28;2.05;;;1.27;;
19004;SDS011;9635;52.078;8.648;2023-08-31T13:35:35;6.80;;;1.20;;
19004;SDS011;9635;52.078;8.648;2023-08-31T13:40:38;5.70;;;1.67;;
19004;SDS011;9635;52.078;8.648;2023-08-31T13:45:41;1.25;;;0.80;;
19004;SDS011;9635;52.078;8.648;2023-08-31T13:50:47;2.92;;;1.15;;
19004;SDS011;9635;52.078;8.648;2023-08-31T13:55:49;3.33;;;0.82;;
19004;SDS011;9635;52.078;8.648;2023-08-31T14:00:52;1.92;;;1.05;;
19004;SDS011;9635;52.078;8.648;2023-08-31T14:05:57;3.25;;;1.42;;
19004;SDS011;9635;52.078;8.648;2023-08-31T14:11:00;2.58;;;0.75;;
19004;SDS011;9635;52.078;8.648;2023-08-31T14:16:03;2.00;;;0.65;;
19004;SDS011;9635;52.078;8.648;2023-08-31T14:21:08;1.10;;;0.45;;
19004;SDS011;9635;52.078;8.648;2023-08-31T14:26:17;0.40;;;0.40;;
19004;SDS011;9635;52.078;8.648;2023-08-31T14:31:20;3.75;;;0.70;;
19004;SDS011;9635;52.078;8.648;2023-08-31T14:36:25;2.80;;;0.88;;
19004;SDS011;9635;52.078;8.648;2023-08-31T14:41:29;3.08;;;0.90;;
19004;SDS011;9635;52.078;8.648;2023-08-31T14:46:32;1.98;;;0.57;;
19004;SDS011;9635;52.078;8.648;2023-08-31T14:51:37;0.80;;;0.40;;
19004;SDS011;9635;52.078;8.648;2023-08-31T14:56:39;3.47;;;0.88;;
19004;SDS011;9635;52.078;8.648;2023-08-31T15:01:42;2.38;;;0.80;;
19004;SDS011;9635;52.078;8.648;2023-08-31T15:06:48;1.52;;;0.93;;
19004;SDS011;9635;52.078;8.648;2023-08-31T15:11:51;1.25;;;0.90;;
19004;SDS011;9635;52.078;8.648;2023-08-31T15:16:54;1.00;;;0.73;;
19004;SDS011;9635;52.078;8.648;2023-08-31T15:21:59;1.73;;;1.13;;
19004;SDS011;9635;52.078;8.648;2023-08-31T15:27:02;1.75;;;1.40;;
19004;SDS011;9635;52.078;8.648;2023-08-31T15:32:05;1.20;;;1.10;;
19004;SDS011;9635;52.078;8.648;2023-08-31T15:37:10;3.65;;;1.17;;
19004;SDS011;9635;52.078;8.648;2023-08-31T15:42:14;1.58;;;1.13;;
19004;SDS011;9635;52.078;8.648;2023-08-31T15:47:17;2.28;;;0.80;;
19004;SDS011;9635;52.078;8.648;2023-08-31T15:52:21;2.58;;;1.25;;
19004;SDS011;9635;52.078;8.648;2023-08-31T15:57:24;3.38;;;0.80;;
19004;SDS011;9635;52.078;8.648;2023-08-31T16:02:27;1.60;;;0.60;;
19004;SDS011;9635;52.078;8.648;2023-08-31T16:07:31;2.13;;;0.88;;
19004;SDS011;9635;52.078;8.648;2023-08-31T16:12:34;2.22;;;0.63;;
19004;SDS011;9635;52.078;8.648;2023-08-31T16:17:37;1.83;;;1.65;;
19004;SDS011;9635;52.078;8.648;2023-08-31T16:22:42;2.58;;;2.38;;
19004;SDS011;9635;52.078;8.648;2023-08-31T16:27:45;3.10;;;1.85;;
19004;SDS011;9635;52.078;8.648;2023-08-31T16:32:48;3.35;;;2.63;;
19004;SDS011;9635;52.078;8.648;2023-08-31T16:37:52;4.32;;;2.08;;
19004;SDS011;9635;52.078;8.648;2023-08-31T16:42:55;0.68;;;0.60;;
19004;SDS011;9635;52.078;8.648;2023-08-31T16:47:58;2.58;;;1.30;;
19004;SDS011;9635;52.078;8.648;2023-08-31T16:53:02;2.38;;;1.27;;
19004;SDS011;9635;52.078;8.648;2023-08-31T16:58:06;1.98;;;1.10;;
19004;SDS011;9635;52.078;8.648;2023-08-31T17:03:09;1.55;;;0.98;;
19004;SDS011;9635;52.078;8.648;2023-08-31T17:08:13;3.50;;;1.40;;
19004;SDS011;9635;52.078;8.648;2023-08-31T17:13:16;3.42;;;1.38;;
19004;SDS011;9635;52.078;8.648;2023-08-31T17:18:19;3.58;;;2.05;;
19004;SDS011;9635;52.078;8.648;2023-08-31T17:23:30;2.90;;;2.08;;
19004;SDS011;9635;52.078;8.648;2023-08-31T17:28:33;4.82;;;2.20;;
19004;SDS011;9635;52.078;8.648;2023-08-31T17:33:36;3.00;;;2.17;;
19004;SDS011;9635;52.078;8.648;2023-08-31T17:38:40;4.90;;;2.75;;
19004;SDS011;9635;52.078;8.648;2023-08-31T17:43:43;3.80;;;2.55;;
19004;SDS011;9635;52.078;8.648;2023-08-31T17:48:47;3.90;;;2.30;;
19004;SDS011;9635;52.078;8.648;2023-08-31T17:53:51;4.93;;;2.67;;
19004;SDS011;9635;52.078;8.648;2023-08-31T17:58:56;7.45;;;2.95;;
19004;SDS011;9635;52.078;8.648;2023-08-31T18:03:59;5.82;;;3.60;;
19004;SDS011;9635;52.078;8.648;2023-08-31T18:09:03;4.20;;;3.22;;
19004;SDS011;9635;52.078;8.648;2023-08-31T18:14:06;6.30;;;4.13;;
19004;SDS011;9635;52.078;8.648;2023-08-31T18:19:10;4.47;;;3.55;;
19004;SDS011;9635;52.078;8.648;2023-08-31T18:24:14;9.27;;;4.30;;
19004;SDS011;9635;52.078;8.648;2023-08-31T18:29:17;5.68;;;4.68;;
19004;SDS011;9635;52.078;8.648;2023-08-31T18:34:20;6.72;;;5.07;;
19004;SDS011;9635;52.078;8.648;2023-08-31T18:39:24;6.85;;;5.15;;
19004;SDS011;9635;52.078;8.648;2023-08-31T18:44:28;6.28;;;5.50;;
19004;SDS011;9635;52.078;8.648;2023-08-31T18:49:31;9.10;;;7.05;;
19004;SDS011;9635;52.078;8.648;2023-08-31T18:54:36;8.30;;;6.30;;
19004;SDS011;9635;52.078;8.648;2023-08-31T18:59:39;9.55;;;6.65;;
19004;SDS011;9635;52.078;8.648;2023-08-31T19:04:42;8.48;;;7.50;;
19004;SDS011;9635;52.078;8.648;2023-08-31T19:09:46;10.80;;;7.70;;
19004;SDS011;9635;52.078;8.648;2023-08-31T19:15:08;10.20;;;8.43;;
19004;SDS011;9635;52.078;8.648;2023-08-31T19:20:14;11.23;;;9.27;;
19004;SDS011;9635;52.078;8.648;2023-08-31T19:25:19;11.65;;;9.30;;
19004;SDS011;9635;52.078;8.648;2023-08-31T19:30:26;11.27;;;9.88;;
19004;SDS011;9635;52.078;8.648;2023-08-31T19:35:31;10.13;;;9.18;;
19004;SDS011;9635;52.078;8.648;2023-08-31T19:40:38;12.32;;;10.63;;
19004;SDS011;9635;52.078;8.648;2023-08-31T19:45:42;11.45;;;10.25;;
19004;SDS011;9635;52.078;8.648;2023-08-31T19:50:46;10.27;;;9.27;;
19004;SDS011;9635;52.078;8.648;2023-08-31T19:55:53;12.68;;;9.57;;
19004;SDS011;9635;52.078;8.648;2023-08-31T20:00:56;10.77;;;9.35;;
19004;SDS011;9635;52.078;8.648;2023-08-31T20:05:59;11.77;;;10.25;;
19004;SDS011;9635;52.078;8.648;2023-08-31T20:11:04;11.88;;;10.70;;
19004;SDS011;9635;52.078;8.648;2023-08-31T20:16:07;11.70;;;10.43;;
19004;SDS011;9635;52.078;8.648;2023-08-31T20:21:11;12.48;;;11.20;;
19004;SDS011;9635;52.078;8.648;2023-08-31T20:26:18;12.65;;;10.90;;
19004;SDS011;9635;52.078;8.648;2023-08-31T20:31:21;13.63;;;10.68;;
19004;SDS011;9635;52.078;8.648;2023-08-31T20:36:25;14.85;;;11.32;;
19004;SDS011;9635;52.078;8.648;2023-08-31T20:41:30;13.45;;;11.75;;
19004;SDS011;9635;52.078;8.648;2023-08-31T20:46:34;14.63;;;12.00;;
19004;SDS011;9635;52.078;8.648;2023-08-31T20:51:38;16.55;;;12.65;;
19004;SDS011;9635;52.078;8.648;2023-08-31T20:56:44;14.82;;;11.77;;
19004;SDS011;9635;52.078;8.648;2023-08-31T21:01:47;17.15;;;12.88;;
19004;SDS011;9635;52.078;8.648;2023-08-31T21:06:50;14.52;;;13.00;;
19004;SDS011;9635;52.078;8.648;2023-08-31T21:11:54;15.82;;;13.55;;
19004;SDS011;9635;52.078;8.648;2023-08-31T21:17:00;15.23;;;12.48;;
19004;SDS011;9635;52.078;8.648;2023-08-31T21:22:03;15.88;;;13.50;;
19004;SDS011;9635;52.078;8.648;2023-08-31T21:27:07;19.70;;;14.80;;
19004;SDS011;9635;52.078;8.648;2023-08-31T21:32:10;17.63;;;14.48;;
19004;SDS011;9635;52.078;8.648;2023-08-31T21:37:13;18.20;;;15.20;;
19004;SDS011;9635;52.078;8.648;2023-08-31T21:42:17;20.98;;;16.17;;
19004;SDS011;9635;52.078;8.648;2023-08-31T21:47:20;21.20;;;15.80;;
19004;SDS011;9635;52.078;8.648;2023-08-31T21:52:23;19.73;;;15.43;;
19004;SDS011;9635;52.078;8.648;2023-08-31T21:57:27;21.83;;;16.85;;
19004;SDS011;9635;52.078;8.648;2023-08-31T22:02:30;21.73;;;16.23;;
19004;SDS011;9635;52.078;8.648;2023-08-31T22:07:33;21.40;;;16.40;;
19004;SDS011;9635;52.078;8.648;2023-08-31T22:12:39;18.38;;;14.63;;
19004;SDS011;9635;52.078;8.648;2023-08-31T22:17:42;18.45;;;14.93;;
19004;SDS011;9635;52.078;8.648;2023-08-31T22:22:46;20.90;;;14.88;;
19004;SDS011;9635;52.078;8.648;2023-08-31T22:27:52;20.35;;;16.50;;
19004;SDS011;9635;52.078;8.648;2023-08-31T22:32:56;16.90;;;15.00;;
19004;SDS011;9635;52.078;8.648;2023-08-31T22:37:59;19.88;;;16.05;;
19004;SDS011;9635;52.078;8.648;2023-08-31T22:43:06;19.27;;;15.00;;
19004;SDS011;9635;52.078;8.648;2023-08-31T22:48:09;20.17;;;16.08;;
19004;SDS011;9635;52.078;8.648;2023-08-31T22:53:12;18.05;;;16.17;;
19004;SDS011;9635;52.078;8.648;2023-08-31T22:58:16;24.52;;;16.50;;
19004;SDS011;9635;52.078;8.648;2023-08-31T23:03:19;18.30;;;15.52;;
19004;SDS011;9635;52.078;8.648;2023-08-31T23:08:22;21.30;;;16.98;;
19004;SDS011;9635;52.078;8.648;2023-08-31T23:13:26;24.45;;;17.05;;
19004;SDS011;9635;52.078;8.648;2023-08-31T23:18:30;26.80;;;17.10;;
19004;SDS011;9635;52.078;8.648;2023-08-31T23:23:33;23.10;;;17.15;;
19004;SDS011;9635;52.078;8.648;2023-08-31T23:28:38;19.48;;;16.80;;
19004;SDS011;9635;52.078;8.648;2023-08-31T23:33:41;21.45;;;16.75;;
19004;SDS011;9635;52.078;8.648;2023-08-31T23:38:44;19.77;;;16.58;;
19004;SDS011;9635;52.078;8.648;2023-08-31T23:43:48;17.33;;;14.90;;
19004;SDS011;9635;52.078;8.648;2023-08-31T23:48:51;17.67;;;14.50;;
19004;SDS011;9635;52.078;8.648;2023-08-31T23:53:54;17.35;;;15.07;;
19004;SDS011;9635;52.078;8.648;2023-08-31T23:58:58;17.17;;;14.75;;
